sensor_id;sensor_type;location;lat;lon;timestamp;pressure;altitude;pressure_sealevel;temperature;humidity
18533;BME280;9396;51.510;11.934;2023-05-11T00:01:31;100248.56;;;14.93;100.00
18533;BME280;9396;51.510;11.934;2023-05-11T00:03:58;100244.97;;;14.86;100.00
18533;BME280;9396;51.510;11.934;2023-05-11T00:06:26;100252.56;;;14.82;100.00
18533;BME280;9396;51.510;11.934;2023-05-11T00:08:52;100246.81;;;14.85;100.00
18533;BME280;9396;51.510;11.934;2023-05-11T00:11:19;100242.50;;;14.84;100.00
18533;BME280;9396;51.510;11.934;2023-05-11T00:13:46;100246.81;;;14.85;100.00
18533;BME280;9396;51.510;11.934;2023-05-11T00:16:13;100243.47;;;14.83;100.00
18533;BME280;9396;51.510;11.934;2023-05-11T00:18:39;100242.94;;;14.88;100.00
18533;BME280;9396;51.510;11.934;2023-05-11T00:21:06;100245.25;;;14.91;100.00
18533;BME280;9396;51.510;11.934;2023-05-11T00:23:34;100244.78;;;14.87;100.00
18533;BME280;9396;51.510;11.934;2023-05-11T00:26:01;100243.94;;;14.87;100.00
18533;BME280;9396;51.510;11.934;2023-05-11T00:28:27;100238.41;;;14.88;100.00
18533;BME280;9396;51.510;11.934;2023-05-11T00:30:55;100238.22;;;14.90;100.00
18533;BME280;9396;51.510;11.934;2023-05-11T00:33:21;100241.53;;;14.92;100.00
18533;BME280;9396;51.510;11.934;2023-05-11T00:35:48;100244.03;;;14.93;100.00
18533;BME280;9396;51.510;11.934;2023-05-11T00:38:15;100236.00;;;14.93;100.00
18533;BME280;9396;51.510;11.934;2023-05-11T00:40:43;100234.16;;;14.94;100.00
18533;BME280;9396;51.510;11.934;2023-05-11T00:43:09;100244.69;;;14.95;100.00
18533;BME280;9396;51.510;11.934;2023-05-11T00:45:36;100219.19;;;14.85;100.00
18533;BME280;9396;51.510;11.934;2023-05-11T00:48:04;100238.50;;;14.95;100.00
18533;BME280;9396;51.510;11.934;2023-05-11T00:50:31;100231.28;;;14.95;100.00
18533;BME280;9396;51.510;11.934;2023-05-11T00:52:58;100227.78;;;14.95;100.00
18533;BME280;9396;51.510;11.934;2023-05-11T00:55:25;100236.63;;;14.95;100.00
18533;BME280;9396;51.510;11.934;2023-05-11T00:57:54;100239.31;;;14.95;100.00
18533;BME280;9396;51.510;11.934;2023-05-11T01:00:20;100234.59;;;14.97;100.00
18533;BME280;9396;51.510;11.934;2023-05-11T01:02:47;100232.97;;;14.82;100.00
18533;BME280;9396;51.510;11.934;2023-05-11T01:05:14;100240.34;;;14.65;100.00
18533;BME280;9396;51.510;11.934;2023-05-11T01:07:48;100240.34;;;14.65;100.00
18533;BME280;9396;51.510;11.934;2023-05-11T01:10:21;100231.19;;;14.74;100.00
18533;BME280;9396;51.510;11.934;2023-05-11T01:12:57;100236.81;;;14.79;100.00
18533;BME280;9396;51.510;11.934;2023-05-11T01:15:31;100236.09;;;14.85;100.00
18533;BME280;9396;51.510;11.934;2023-05-11T01:18:10;100238.78;;;14.85;100.00
18533;BME280;9396;51.510;11.934;2023-05-11T01:20:44;100231.59;;;14.86;100.00
18533;BME280;9396;51.510;11.934;2023-05-11T01:23:29;100235.72;;;14.88;100.00
18533;BME280;9396;51.510;11.934;2023-05-11T01:26:09;100236.38;;;14.90;100.00
18533;BME280;9396;51.510;11.934;2023-05-11T01:29:00;100228.34;;;14.90;100.00
18533;BME280;9396;51.510;11.934;2023-05-11T01:31:38;100227.88;;;14.87;100.00
18533;BME280;9396;51.510;11.934;2023-05-11T01:34:09;100236.56;;;14.89;100.00
18533;BME280;9396;51.510;11.934;2023-05-11T01:36:41;100230.00;;;14.91;100.00
18533;BME280;9396;51.510;11.934;2023-05-11T01:39:11;100236.94;;;14.86;100.00
18533;BME280;9396;51.510;11.934;2023-05-11T01:41:41;100243.09;;;14.86;100.00
18533;BME280;9396;51.510;11.934;2023-05-11T01:44:12;100243.75;;;14.88;100.00
18533;BME280;9396;51.510;11.934;2023-05-11T01:46:40;100239.69;;;14.92;100.00
18533;BME280;9396;51.510;11.934;2023-05-11T01:49:07;100237.03;;;14.92;100.00
18533;BME280;9396;51.510;11.934;2023-05-11T01:51:36;100247.72;;;14.92;100.00
18533;BME280;9396;51.510;11.934;2023-05-11T01:54:05;100247.28;;;14.89;100.00
18533;BME280;9396;51.510;11.934;2023-05-11T01:56:34;100244.41;;;14.90;100.00
18533;BME280;9396;51.510;11.934;2023-05-11T01:59:01;100241.72;;;14.90;100.00
18533;BME280;9396;51.510;11.934;2023-05-11T02:01:29;100240.06;;;14.89;100.00
18533;BME280;9396;51.510;11.934;2023-05-11T02:04:01;100250.16;;;14.87;100.00
18533;BME280;9396;51.510;11.934;2023-05-11T02:06:30;100245.31;;;14.83;100.00
18533;BME280;9396;51.510;11.934;2023-05-11T02:08:59;100251.34;;;14.85;100.00
18533;BME280;9396;51.510;11.934;2023-05-11T02:11:27;100248.13;;;14.89;100.00
18533;BME280;9396;51.510;11.934;2023-05-11T02:13:55;100249.75;;;14.90;100.00
18533;BME280;9396;51.510;11.934;2023-05-11T02:16:30;100242.75;;;14.89;100.00
18533;BME280;9396;51.510;11.934;2023-05-11T02:18:59;100259.19;;;14.86;100.00
18533;BME280;9396;51.510;11.934;2023-05-11T02:21:26;100243.09;;;14.86;100.00
18533;BME280;9396;51.510;11.934;2023-05-11T02:23:53;100243.09;;;14.86;100.00
18533;BME280;9396;51.510;11.934;2023-05-11T02:26:22;100248.00;;;14.83;100.00
18533;BME280;9396;51.510;11.934;2023-05-11T02:28:48;100244.50;;;14.82;100.00
18533;BME280;9396;51.510;11.934;2023-05-11T02:31:17;100243.47;;;14.83;100.00
18533;BME280;9396;51.510;11.934;2023-05-11T02:33:47;100250.41;;;14.78;100.00
18533;BME280;9396;51.510;11.934;2023-05-11T02:36:18;100248.09;;;14.75;100.00
18533;BME280;9396;51.510;11.934;2023-05-11T02:38:46;100249.56;;;14.77;100.00
18533;BME280;9396;51.510;11.934;2023-05-11T02:41:16;100253.94;;;14.78;100.00
18533;BME280;9396;51.510;11.934;2023-05-11T02:43:46;100255.56;;;14.79;100.00
18533;BME280;9396;51.510;11.934;2023-05-11T02:46:19;100253.09;;;14.78;100.00
18533;BME280;9396;51.510;11.934;2023-05-11T02:48:50;100250.41;;;14.78;100.00
18533;BME280;9396;51.510;11.934;2023-05-11T02:51:23;100251.25;;;14.78;100.00
18533;BME280;9396;51.510;11.934;2023-05-11T02:53:53;100245.06;;;14.78;100.00
18533;BME280;9396;51.510;11.934;2023-05-11T02:56:22;100246.88;;;14.77;100.00
18533;BME280;9396;51.510;11.934;2023-05-11T02:58:49;100245.25;;;14.76;100.00
18533;BME280;9396;51.510;11.934;2023-05-11T03:01:16;100243.28;;;14.70;100.00
18533;BME280;9396;51.510;11.934;2023-05-11T03:03:43;100242.94;;;14.73;100.00
18533;BME280;9396;51.510;11.934;2023-05-11T03:06:10;100241.25;;;14.72;100.00
18533;BME280;9396;51.510;11.934;2023-05-11T03:08:39;100238.78;;;14.71;100.00
18533;BME280;9396;51.510;11.934;2023-05-11T03:11:06;100240.59;;;14.70;100.00
18533;BME280;9396;51.510;11.934;2023-05-11T03:13:35;100138.75;;;14.06;100.00
18533;BME280;9396;51.510;11.934;2023-05-11T03:16:03;100236.66;;;14.66;100.00
18533;BME280;9396;51.510;11.934;2023-05-11T03:18:32;100232.94;;;14.67;100.00
18533;BME280;9396;51.510;11.934;2023-05-11T03:20:59;100236.28;;;14.69;100.00
18533;BME280;9396;51.510;11.934;2023-05-11T03:23:27;100241.00;;;14.67;100.00
18533;BME280;9396;51.510;11.934;2023-05-11T03:25:57;100235.63;;;14.67;100.00
18533;BME280;9396;51.510;11.934;2023-05-11T03:28:25;100233.78;;;14.68;100.00
18533;BME280;9396;51.510;11.934;2023-05-11T03:30:52;100232.94;;;14.67;100.00
18533;BME280;9396;51.510;11.934;2023-05-11T03:33:19;100231.97;;;14.68;100.00
18533;BME280;9396;51.510;11.934;2023-05-11T03:35:49;100237.94;;;14.70;100.00
18533;BME280;9396;51.510;11.934;2023-05-11T03:38:16;100234.63;;;14.68;100.00
18533;BME280;9396;51.510;11.934;2023-05-11T03:40:44;100233.97;;;14.66;100.00
18533;BME280;9396;51.510;11.934;2023-05-11T03:43:15;100229.81;;;14.64;100.00
18533;BME280;9396;51.510;11.934;2023-05-11T03:45:44;100238.03;;;14.62;100.00
18533;BME280;9396;51.510;11.934;2023-05-11T03:48:13;100238.03;;;14.62;100.00
18533;BME280;9396;51.510;11.934;2023-05-11T03:50:41;100236.38;;;14.61;100.00
18533;BME280;9396;51.510;11.934;2023-05-11T03:53:09;100238.41;;;14.59;100.00
18533;BME280;9396;51.510;11.934;2023-05-11T03:55:36;100238.75;;;14.56;100.00
18533;BME280;9396;51.510;11.934;2023-05-11T03:58:05;100239.41;;;14.58;100.00
18533;BME280;9396;51.510;11.934;2023-05-11T04:00:37;100234.06;;;14.58;100.00
18533;BME280;9396;51.510;11.934;2023-05-11T04:03:04;100232.41;;;14.57;100.00
18533;BME280;9396;51.510;11.934;2023-05-11T04:05:31;100234.44;;;14.55;100.00
18533;BME280;9396;51.510;11.934;2023-05-11T04:07:58;100224.25;;;14.51;100.00
18533;BME280;9396;51.510;11.934;2023-05-11T04:10:25;100228.06;;;14.42;100.00
18533;BME280;9396;51.510;11.934;2023-05-11T04:12:51;100223.31;;;14.44;100.00
18533;BME280;9396;51.510;11.934;2023-05-11T04:15:19;100226.47;;;14.47;100.00
18533;BME280;9396;51.510;11.934;2023-05-11T04:17:47;100231.19;;;14.45;100.00
18533;BME280;9396;51.510;11.934;2023-05-11T04:20:14;100231.53;;;14.42;100.00
18533;BME280;9396;51.510;11.934;2023-05-11T04:22:40;100237.75;;;14.43;100.00
18533;BME280;9396;51.510;11.934;2023-05-11T04:25:08;100237.09;;;14.41;100.00
18533;BME280;9396;51.510;11.934;2023-05-11T04:27:34;100237.94;;;14.41;100.00
18533;BME280;9396;51.510;11.934;2023-05-11T04:30:01;100239.56;;;14.42;100.00
18533;BME280;9396;51.510;11.934;2023-05-11T04:32:28;100227.69;;;14.45;100.00
18533;BME280;9396;51.510;11.934;2023-05-11T04:34:56;100232.84;;;14.46;100.00
18533;BME280;9396;51.510;11.934;2023-05-11T04:37:22;100232.66;;;14.48;100.00
18533;BME280;9396;51.510;11.934;2023-05-11T04:39:49;100241.16;;;14.51;100.00
18533;BME280;9396;51.510;11.934;2023-05-11T04:42:16;100236.47;;;14.53;100.00
18533;BME280;9396;51.510;11.934;2023-05-11T04:44:42;100232.66;;;14.48;100.00
18533;BME280;9396;51.510;11.934;2023-05-11T04:47:09;100236.91;;;14.42;100.00
18533;BME280;9396;51.510;11.934;2023-05-11T04:49:36;100233.88;;;14.45;100.00
18533;BME280;9396;51.510;11.934;2023-05-11T04:52:05;100240.59;;;14.41;100.00
18533;BME280;9396;51.510;11.934;2023-05-11T04:54:31;100254.44;;;14.45;100.00
18533;BME280;9396;51.510;11.934;2023-05-11T04:56:58;100246.88;;;14.48;100.00
18533;BME280;9396;51.510;11.934;2023-05-11T04:59:25;100250.09;;;14.44;100.00
18533;BME280;9396;51.510;11.934;2023-05-11T05:01:51;100243.19;;;14.49;100.00
18533;BME280;9396;51.510;11.934;2023-05-11T05:04:18;100246.22;;;14.46;100.00
18533;BME280;9396;51.510;11.934;2023-05-11T05:06:45;100243.19;;;14.49;100.00
18533;BME280;9396;51.510;11.934;2023-05-11T05:09:13;100246.59;;;14.43;100.00
18533;BME280;9396;51.510;11.934;2023-05-11T05:11:40;100245.84;;;14.49;100.00
18533;BME280;9396;51.510;11.934;2023-05-11T05:14:06;100250.03;;;14.52;100.00
18533;BME280;9396;51.510;11.934;2023-05-11T05:16:33;100248.81;;;14.54;100.00
18533;BME280;9396;51.510;11.934;2023-05-11T05:19:00;100245.78;;;14.57;100.00
18533;BME280;9396;51.510;11.934;2023-05-11T05:21:26;100246.13;;;14.54;100.00
18533;BME280;9396;51.510;11.934;2023-05-11T05:23:53;100258.13;;;14.44;100.00
18533;BME280;9396;51.510;11.934;2023-05-11T05:26:21;100248.72;;;14.48;100.00
18533;BME280;9396;51.510;11.934;2023-05-11T05:28:48;100253.22;;;14.47;100.00
18533;BME280;9396;51.510;11.934;2023-05-11T05:31:14;100256.56;;;14.49;100.00
18533;BME280;9396;51.510;11.934;2023-05-11T05:33:41;100259.38;;;14.56;100.00
18533;BME280;9396;51.510;11.934;2023-05-11T05:36:07;100253.22;;;14.47;100.00
18533;BME280;9396;51.510;11.934;2023-05-11T05:38:34;100256.22;;;14.52;100.00
18533;BME280;9396;51.510;11.934;2023-05-11T05:41:01;100256.50;;;14.57;100.00
18533;BME280;9396;51.510;11.934;2023-05-11T05:43:29;100263.16;;;14.61;100.00
18533;BME280;9396;51.510;11.934;2023-05-11T05:45:55;100258.44;;;14.63;100.00
18533;BME280;9396;51.510;11.934;2023-05-11T05:48:22;100262.84;;;14.56;100.00
18533;BME280;9396;51.510;11.934;2023-05-11T05:50:49;100262.13;;;14.62;100.00
18533;BME280;9396;51.510;11.934;2023-05-11T05:53:16;100256.41;;;14.65;100.00
18533;BME280;9396;51.510;11.934;2023-05-11T05:55:42;100271.28;;;14.68;100.00
18533;BME280;9396;51.510;11.934;2023-05-11T05:58:09;100262.03;;;14.70;100.00
18533;BME280;9396;51.510;11.934;2023-05-11T06:00:38;100264.72;;;14.70;100.00
18533;BME280;9396;51.510;11.934;2023-05-11T06:03:05;100267.38;;;14.70;100.00
18533;BME280;9396;51.510;11.934;2023-05-11T06:05:31;100272.59;;;14.72;100.00
18533;BME280;9396;51.510;11.934;2023-05-11T06:07:58;100266.13;;;14.66;100.00
18533;BME280;9396;51.510;11.934;2023-05-11T06:10:24;100275.06;;;14.73;100.00
18533;BME280;9396;51.510;11.934;2023-05-11T06:12:52;100274.88;;;14.60;100.00
18533;BME280;9396;51.510;11.934;2023-05-11T06:15:18;100276.97;;;14.50;100.00
18533;BME280;9396;51.510;11.934;2023-05-11T06:17:47;100277.97;;;14.49;100.00
18533;BME280;9396;51.510;11.934;2023-05-11T06:20:13;100275.94;;;14.51;100.00
18533;BME280;9396;51.510;11.934;2023-05-11T06:22:40;100271.06;;;14.55;100.00
18533;BME280;9396;51.510;11.934;2023-05-11T06:25:07;100277.63;;;14.67;100.00
18533;BME280;9396;51.510;11.934;2023-05-11T06:27:34;100274.22;;;14.73;100.00
18533;BME280;9396;51.510;11.934;2023-05-11T06:30:00;100273.50;;;14.64;100.00
18533;BME280;9396;51.510;11.934;2023-05-11T06:32:27;100271.91;;;14.55;100.00
18533;BME280;9396;51.510;11.934;2023-05-11T06:34:55;100270.81;;;14.64;100.00
18533;BME280;9396;51.510;11.934;2023-05-11T06:37:21;100272.28;;;14.67;100.00
18533;BME280;9396;51.510;11.934;2023-05-11T06:39:48;100274.78;;;14.68;100.00
18533;BME280;9396;51.510;11.934;2023-05-11T06:42:15;100275.13;;;14.51;100.00
18533;BME280;9396;51.510;11.934;2023-05-11T06:44:41;100267.88;;;14.59;100.00
18533;BME280;9396;51.510;11.934;2023-05-11T06:47:08;100265.44;;;14.50;100.00
18533;BME280;9396;51.510;11.934;2023-05-11T06:49:35;100267.28;;;14.49;100.00
18533;BME280;9396;51.510;11.934;2023-05-11T06:52:03;100264.25;;;14.52;100.00
18533;BME280;9396;51.510;11.934;2023-05-11T06:54:30;100268.19;;;14.56;100.00
18533;BME280;9396;51.510;11.934;2023-05-11T06:56:57;100262.41;;;14.67;100.00
18533;BME280;9396;51.510;11.934;2023-05-11T06:59:23;100265.75;;;14.84;100.00
18533;BME280;9396;51.510;11.934;2023-05-11T07:01:50;100258.81;;;14.75;100.00
18533;BME280;9396;51.510;11.934;2023-05-11T07:04:17;100266.94;;;14.81;100.00
18533;BME280;9396;51.510;11.934;2023-05-11T07:06:43;100257.25;;;14.95;100.00
18533;BME280;9396;51.510;11.934;2023-05-11T07:09:11;100254.28;;;14.90;100.00
18533;BME280;9396;51.510;11.934;2023-05-11T07:11:38;100260.84;;;14.87;100.00
18533;BME280;9396;51.510;11.934;2023-05-11T07:14:05;100258.72;;;14.97;100.00
18533;BME280;9396;51.510;11.934;2023-05-11T07:16:32;100259.56;;;14.83;100.00
18533;BME280;9396;51.510;11.934;2023-05-11T07:19:02;100255.19;;;14.97;100.00
18533;BME280;9396;51.510;11.934;2023-05-11T07:21:29;100254.84;;;15.15;100.00
18533;BME280;9396;51.510;11.934;2023-05-11T07:23:56;100257.03;;;15.26;100.00
18533;BME280;9396;51.510;11.934;2023-05-11T07:26:25;100259.44;;;15.50;100.00
18533;BME280;9396;51.510;11.934;2023-05-11T07:28:51;100255.19;;;15.26;100.00
18533;BME280;9396;51.510;11.934;2023-05-11T07:31:18;100258.72;;;15.41;100.00
18533;BME280;9396;51.510;11.934;2023-05-11T07:33:44;100258.09;;;15.60;100.00
18533;BME280;9396;51.510;11.934;2023-05-11T07:36:11;100253.13;;;15.78;100.00
18533;BME280;9396;51.510;11.934;2023-05-11T07:38:38;100257.16;;;15.68;100.00
18533;BME280;9396;51.510;11.934;2023-05-11T07:41:04;100259.25;;;15.72;100.00
18533;BME280;9396;51.510;11.934;2023-05-11T07:43:33;100249.22;;;15.81;100.00
18533;BME280;9396;51.510;11.934;2023-05-11T07:45:59;100253.19;;;15.64;100.00
18533;BME280;9396;51.510;11.934;2023-05-11T07:48:26;100253.19;;;15.85;100.00
18533;BME280;9396;51.510;11.934;2023-05-11T07:50:53;100249.88;;;16.04;100.00
18533;BME280;9396;51.510;11.934;2023-05-11T07:53:19;100253.44;;;16.32;100.00
18533;BME280;9396;51.510;11.934;2023-05-11T07:55:46;100253.78;;;16.50;100.00
18533;BME280;9396;51.510;11.934;2023-05-11T07:58:12;100257.63;;;16.62;100.00
18533;BME280;9396;51.510;11.934;2023-05-11T08:00:40;100249.28;;;16.85;100.00
18533;BME280;9396;51.510;11.934;2023-05-11T08:03:07;100257.44;;;16.70;100.00
18533;BME280;9396;51.510;11.934;2023-05-11T08:05:34;100260.00;;;16.78;100.00
18533;BME280;9396;51.510;11.934;2023-05-11T08:08:02;100257.88;;;16.74;100.00
18533;BME280;9396;51.510;11.934;2023-05-11T08:10:29;100256.94;;;16.88;100.00
18533;BME280;9396;51.510;11.934;2023-05-11T08:12:56;100261.75;;;16.92;100.00
18533;BME280;9396;51.510;11.934;2023-05-11T08:15:22;100264.88;;;16.68;100.00
18533;BME280;9396;51.510;11.934;2023-05-11T08:17:50;100266.34;;;16.71;100.00
18533;BME280;9396;51.510;11.934;2023-05-11T08:20:17;100265.31;;;16.72;100.00
18533;BME280;9396;51.510;11.934;2023-05-11T08:22:44;100268.97;;;16.64;100.00
18533;BME280;9396;51.510;11.934;2023-05-11T08:25:11;100275.19;;;16.65;100.00
18533;BME280;9396;51.510;11.934;2023-05-11T08:27:38;100272.50;;;16.44;100.00
18533;BME280;9396;51.510;11.934;2023-05-11T08:30:05;100270.03;;;16.42;100.00
18533;BME280;9396;51.510;11.934;2023-05-11T08:32:34;100269.53;;;16.32;100.00
18533;BME280;9396;51.510;11.934;2023-05-11T08:35:02;100274.53;;;16.14;100.00
18533;BME280;9396;51.510;11.934;2023-05-11T08:37:28;100276.19;;;16.15;100.00
18533;BME280;9396;51.510;11.934;2023-05-11T08:39:55;100270.19;;;16.13;100.00
18533;BME280;9396;51.510;11.934;2023-05-11T08:42:23;100268.00;;;16.02;100.00
18533;BME280;9396;51.510;11.934;2023-05-11T08:44:54;100271.47;;;16.17;100.00
18533;BME280;9396;51.510;11.934;2023-05-11T08:47:21;100275.28;;;16.29;100.00
18533;BME280;9396;51.510;11.934;2023-05-11T08:49:49;100245.94;;;16.28;100.00
18533;BME280;9396;51.510;11.934;2023-05-11T08:52:19;100273.34;;;16.65;100.00
18533;BME280;9396;51.510;11.934;2023-05-11T08:54:46;100166.78;;;16.17;100.00
18533;BME280;9396;51.510;11.934;2023-05-11T08:57:13;100245.66;;;16.44;100.00
18533;BME280;9396;51.510;11.934;2023-05-11T08:59:41;100284.91;;;16.66;100.00
18533;BME280;9396;51.510;11.934;2023-05-11T09:02:13;100276.50;;;16.75;100.00
18533;BME280;9396;51.510;11.934;2023-05-11T09:04:41;100277.00;;;16.85;100.00
18533;BME280;9396;51.510;11.934;2023-05-11T09:07:09;100274.13;;;16.93;100.00
18533;BME280;9396;51.510;11.934;2023-05-11T09:09:38;100277.44;;;16.89;100.00
18533;BME280;9396;51.510;11.934;2023-05-11T09:12:07;100204.03;;;16.54;100.00
18533;BME280;9396;51.510;11.934;2023-05-11T09:14:34;100276.25;;;16.98;100.00
18533;BME280;9396;51.510;11.934;2023-05-11T09:17:01;100277.88;;;16.92;100.00
18533;BME280;9396;51.510;11.934;2023-05-11T09:19:28;100272.53;;;17.05;100.00
18533;BME280;9396;51.510;11.934;2023-05-11T09:21:55;100268.88;;;17.13;100.00
18533;BME280;9396;51.510;11.934;2023-05-11T09:24:22;100272.25;;;17.28;100.00
18533;BME280;9396;51.510;11.934;2023-05-11T09:27:05;100271.16;;;17.57;100.00
18533;BME280;9396;51.510;11.934;2023-05-11T09:29:32;100262.16;;;17.90;100.00
18533;BME280;9396;51.510;11.934;2023-05-11T09:31:58;100266.31;;;18.19;98.19
18533;BME280;9396;51.510;11.934;2023-05-11T09:34:25;100271.72;;;18.19;93.89
18533;BME280;9396;51.510;11.934;2023-05-11T09:36:53;100263.81;;;18.17;93.88
18533;BME280;9396;51.510;11.934;2023-05-11T09:39:27;100262.56;;;18.07;92.14
18533;BME280;9396;51.510;11.934;2023-05-11T09:42:16;100264.66;;;18.18;93.85
18533;BME280;9396;51.510;11.934;2023-05-11T09:44:44;100260.72;;;18.21;94.23
18533;BME280;9396;51.510;11.934;2023-05-11T09:47:13;100267.16;;;18.26;94.48
18533;BME280;9396;51.510;11.934;2023-05-11T09:49:40;100269.19;;;18.17;94.04
18533;BME280;9396;51.510;11.934;2023-05-11T09:52:09;100273.13;;;18.02;91.83
18533;BME280;9396;51.510;11.934;2023-05-11T09:54:46;100272.28;;;17.88;92.69
18533;BME280;9396;51.510;11.934;2023-05-11T09:57:25;100273.72;;;17.78;93.49
18533;BME280;9396;51.510;11.934;2023-05-11T09:59:52;100273.50;;;17.73;90.77
18533;BME280;9396;51.510;11.934;2023-05-11T10:02:21;100271.03;;;17.78;91.89
18533;BME280;9396;51.510;11.934;2023-05-11T10:04:48;100278.25;;;17.77;92.12
18533;BME280;9396;51.510;11.934;2023-05-11T10:07:28;100275.16;;;17.80;94.99
18533;BME280;9396;51.510;11.934;2023-05-11T10:09:56;100271.66;;;17.86;95.21
18533;BME280;9396;51.510;11.934;2023-05-11T10:12:25;100267.28;;;17.85;94.17
18533;BME280;9396;51.510;11.934;2023-05-11T10:14:54;100163.06;;;17.34;95.49
18533;BME280;9396;51.510;11.934;2023-05-11T10:17:20;100262.56;;;18.00;95.37
18533;BME280;9396;51.510;11.934;2023-05-11T10:19:48;100270.00;;;18.05;95.27
18533;BME280;9396;51.510;11.934;2023-05-11T10:22:15;100263.41;;;18.07;94.23
18533;BME280;9396;51.510;11.934;2023-05-11T10:24:42;100257.41;;;18.12;93.04
18533;BME280;9396;51.510;11.934;2023-05-11T10:27:10;100257.19;;;18.20;90.90
18533;BME280;9396;51.510;11.934;2023-05-11T10:29:38;100256.78;;;18.10;88.92
18533;BME280;9396;51.510;11.934;2023-05-11T10:32:06;100257.81;;;18.22;90.57
18533;BME280;9396;51.510;11.934;2023-05-11T10:34:33;100260.94;;;18.32;90.65
18533;BME280;9396;51.510;11.934;2023-05-11T10:37:00;100249.75;;;18.35;88.54
18533;BME280;9396;51.510;11.934;2023-05-11T10:39:28;100257.44;;;18.45;89.58
18533;BME280;9396;51.510;11.934;2023-05-11T10:42:07;100252.88;;;18.58;90.99
18533;BME280;9396;51.510;11.934;2023-05-11T10:44:50;100259.50;;;18.62;88.95
18533;BME280;9396;51.510;11.934;2023-05-11T10:47:36;100250.59;;;18.49;87.73
18533;BME280;9396;51.510;11.934;2023-05-11T10:50:16;100260.97;;;18.58;89.15
18533;BME280;9396;51.510;11.934;2023-05-11T10:53:07;100257.63;;;18.50;88.99
18533;BME280;9396;51.510;11.934;2023-05-11T10:55:58;100261.16;;;18.63;90.42
18533;BME280;9396;51.510;11.934;2023-05-11T10:58:39;100250.38;;;18.63;87.34
18533;BME280;9396;51.510;11.934;2023-05-11T11:01:26;100246.00;;;18.75;89.21
18533;BME280;9396;51.510;11.934;2023-05-11T11:03:57;100245.97;;;18.82;88.94
18533;BME280;9396;51.510;11.934;2023-05-11T11:06:26;100255.06;;;19.00;90.07
18533;BME280;9396;51.510;11.934;2023-05-11T11:08:55;100253.81;;;19.09;88.33
18533;BME280;9396;51.510;11.934;2023-05-11T11:11:34;100242.63;;;19.06;86.44
18533;BME280;9396;51.510;11.934;2023-05-11T11:14:01;100243.44;;;19.06;87.52
18533;BME280;9396;51.510;11.934;2023-05-11T11:16:32;100250.06;;;19.10;87.14
18533;BME280;9396;51.510;11.934;2023-05-11T11:19:36;100251.72;;;19.11;87.56
18533;BME280;9396;51.510;11.934;2023-05-11T11:22:04;100250.50;;;19.07;89.73
18533;BME280;9396;51.510;11.934;2023-05-11T11:24:44;100252.56;;;19.05;88.28
18533;BME280;9396;51.510;11.934;2023-05-11T11:27:11;100180.53;;;18.55;85.28
18533;BME280;9396;51.510;11.934;2023-05-11T11:29:40;100244.91;;;19.02;86.33
18533;BME280;9396;51.510;11.934;2023-05-11T11:32:26;100238.91;;;19.00;87.74
18533;BME280;9396;51.510;11.934;2023-05-11T11:34:53;100244.66;;;19.10;89.25
18533;BME280;9396;51.510;11.934;2023-05-11T11:37:20;100238.66;;;19.15;87.38
18533;BME280;9396;51.510;11.934;2023-05-11T11:39:54;100244.44;;;19.12;87.96
18533;BME280;9396;51.510;11.934;2023-05-11T11:42:36;100243.81;;;19.16;86.26
18533;BME280;9396;51.510;11.934;2023-05-11T11:45:26;100241.72;;;19.25;84.40
18533;BME280;9396;51.510;11.934;2023-05-11T11:48:31;100241.47;;;19.33;84.29
18533;BME280;9396;51.510;11.934;2023-05-11T11:51:01;100235.84;;;19.41;85.10
18533;BME280;9396;51.510;11.934;2023-05-11T11:53:57;100229.81;;;19.46;83.82
18533;BME280;9396;51.510;11.934;2023-05-11T11:56:39;100237.44;;;19.55;84.67
18533;BME280;9396;51.510;11.934;2023-05-11T11:59:09;100234.13;;;19.60;84.67
18533;BME280;9396;51.510;11.934;2023-05-11T12:01:38;100159.53;;;19.28;84.58
18533;BME280;9396;51.510;11.934;2023-05-11T12:07:14;100230.13;;;19.62;83.65
18533;BME280;9396;51.510;11.934;2023-05-11T12:09:44;100235.41;;;19.51;82.02
18533;BME280;9396;51.510;11.934;2023-05-11T12:12:11;100231.47;;;19.47;84.19
18533;BME280;9396;51.510;11.934;2023-05-11T12:14:39;100216.72;;;19.49;84.98
18533;BME280;9396;51.510;11.934;2023-05-11T12:17:14;100138.91;;;19.02;85.89
18533;BME280;9396;51.510;11.934;2023-05-11T12:19:42;100221.47;;;19.54;83.29
18533;BME280;9396;51.510;11.934;2023-05-11T12:22:10;100225.81;;;19.55;84.02
18533;BME280;9396;51.510;11.934;2023-05-11T12:24:40;100230.41;;;19.54;84.44
18533;BME280;9396;51.510;11.934;2023-05-11T12:27:07;100227.50;;;19.49;83.54
18533;BME280;9396;51.510;11.934;2023-05-11T12:29:33;100224.19;;;19.54;84.36
18533;BME280;9396;51.510;11.934;2023-05-11T12:32:00;100228.38;;;19.43;83.18
18533;BME280;9396;51.510;11.934;2023-05-11T12:34:27;100227.56;;;19.30;83.06
18533;BME280;9396;51.510;11.934;2023-05-11T12:36:53;100159.97;;;18.67;87.84
18533;BME280;9396;51.510;11.934;2023-05-11T12:39:22;100228.53;;;18.97;89.85
18533;BME280;9396;51.510;11.934;2023-05-11T12:41:51;100224.03;;;18.72;92.18
18533;BME280;9396;51.510;11.934;2023-05-11T12:44:19;100231.53;;;18.50;96.02
18533;BME280;9396;51.510;11.934;2023-05-11T12:46:47;100188.44;;;18.11;99.42
18533;BME280;9396;51.510;11.934;2023-05-11T12:49:15;100232.97;;;18.33;100.00
18533;BME280;9396;51.510;11.934;2023-05-11T12:51:50;100234.00;;;18.26;100.00
18533;BME280;9396;51.510;11.934;2023-05-11T12:54:25;100238.97;;;18.09;100.00
18533;BME280;9396;51.510;11.934;2023-05-11T12:56:53;100238.16;;;18.15;100.00